sensor_id;sensor_type;location;lat;lon;timestamp;P1;durP1;ratioP1;P2;durP2;ratioP2
84025;SDS011;74110;45.660;25.582;2023-12-20T00:00:32;51.00;;;24.30;;
84025;SDS011;74110;45.660;25.582;2023-12-20T00:03:22;43.10;;;20.60;;
84025;SDS011;74110;45.660;25.582;2023-12-20T00:05:52;44.60;;;19.80;;
84025;SDS011;74110;45.660;25.582;2023-12-20T00:08:21;66.30;;;27.20;;
84025;SDS011;74110;45.660;25.582;2023-12-20T00:10:50;61.80;;;28.50;;
84025;SDS011;74110;45.660;25.582;2023-12-20T00:13:19;58.10;;;27.80;;
84025;SDS011;74110;45.660;25.582;2023-12-20T00:15:48;55.90;;;24.10;;
84025;SDS011;74110;45.660;25.582;2023-12-20T00:18:17;62.80;;;25.80;;
84025;SDS011;74110;45.660;25.582;2023-12-20T00:20:47;57.00;;;26.20;;
84025;SDS011;74110;45.660;25.582;2023-12-20T00:23:16;50.80;;;24.90;;
84025;SDS011;74110;45.660;25.582;2023-12-20T00:25:45;53.50;;;24.80;;
84025;SDS011;74110;45.660;25.582;2023-12-20T00:28:14;56.40;;;24.40;;
84025;SDS011;74110;45.660;25.582;2023-12-20T00:30:43;52.50;;;21.50;;
84025;SDS011;74110;45.660;25.582;2023-12-20T00:33:12;49.40;;;20.30;;
84025;SDS011;74110;45.660;25.582;2023-12-20T00:35:41;70.10;;;28.50;;
84025;SDS011;74110;45.660;25.582;2023-12-20T00:38:10;68.40;;;27.60;;
84025;SDS011;74110;45.660;25.582;2023-12-20T00:40:40;55.50;;;25.30;;
84025;SDS011;74110;45.660;25.582;2023-12-20T00:43:08;61.10;;;25.00;;
84025;SDS011;74110;45.660;25.582;2023-12-20T00:45:37;55.30;;;22.90;;
84025;SDS011;74110;45.660;25.582;2023-12-20T00:48:06;59.60;;;24.50;;
84025;SDS011;74110;45.660;25.582;2023-12-20T00:50:35;58.20;;;25.10;;
84025;SDS011;74110;45.660;25.582;2023-12-20T00:53:04;67.40;;;26.90;;
84025;SDS011;74110;45.660;25.582;2023-12-20T00:55:34;61.70;;;24.20;;
84025;SDS011;74110;45.660;25.582;2023-12-20T00:58:03;66.20;;;26.10;;
84025;SDS011;74110;45.660;25.582;2023-12-20T01:00:32;51.00;;;20.70;;
84025;SDS011;74110;45.660;25.582;2023-12-20T01:03:02;60.90;;;20.80;;
84025;SDS011;74110;45.660;25.582;2023-12-20T01:05:32;57.30;;;25.70;;
84025;SDS011;74110;45.660;25.582;2023-12-20T01:08:01;61.80;;;26.60;;
84025;SDS011;74110;45.660;25.582;2023-12-20T01:10:32;57.70;;;25.90;;
84025;SDS011;74110;45.660;25.582;2023-12-20T01:13:01;53.10;;;24.80;;
84025;SDS011;74110;45.660;25.582;2023-12-20T01:15:30;52.60;;;22.10;;
84025;SDS011;74110;45.660;25.582;2023-12-20T01:17:59;51.60;;;20.90;;
84025;SDS011;74110;45.660;25.582;2023-12-20T01:20:28;53.00;;;23.30;;
84025;SDS011;74110;45.660;25.582;2023-12-20T01:22:58;55.40;;;24.40;;
84025;SDS011;74110;45.660;25.582;2023-12-20T01:25:26;47.50;;;20.10;;
84025;SDS011;74110;45.660;25.582;2023-12-20T01:27:56;47.80;;;20.00;;
84025;SDS011;74110;45.660;25.582;2023-12-20T01:30:25;56.90;;;24.80;;
84025;SDS011;74110;45.660;25.582;2023-12-20T01:32:53;44.50;;;19.50;;
84025;SDS011;74110;45.660;25.582;2023-12-20T01:35:23;50.20;;;22.40;;
84025;SDS011;74110;45.660;25.582;2023-12-20T01:37:52;46.60;;;22.40;;
84025;SDS011;74110;45.660;25.582;2023-12-20T01:40:25;40.30;;;18.90;;
84025;SDS011;74110;45.660;25.582;2023-12-20T01:42:58;44.70;;;22.40;;
84025;SDS011;74110;45.660;25.582;2023-12-20T01:45:31;40.40;;;18.70;;
84025;SDS011;74110;45.660;25.582;2023-12-20T01:47:59;31.80;;;15.10;;
84025;SDS011;74110;45.660;25.582;2023-12-20T01:50:31;40.60;;;19.20;;
84025;SDS011;74110;45.660;25.582;2023-12-20T01:53:03;34.20;;;15.30;;
84025;SDS011;74110;45.660;25.582;2023-12-20T01:55:36;41.20;;;19.90;;
84025;SDS011;74110;45.660;25.582;2023-12-20T01:58:09;45.00;;;21.20;;
84025;SDS011;74110;45.660;25.582;2023-12-20T02:00:39;41.70;;;19.30;;
84025;SDS011;74110;45.660;25.582;2023-12-20T02:03:08;40.00;;;17.60;;
84025;SDS011;74110;45.660;25.582;2023-12-20T02:05:37;42.70;;;18.60;;
84025;SDS011;74110;45.660;25.582;2023-12-20T02:08:07;43.70;;;17.60;;
84025;SDS011;74110;45.660;25.582;2023-12-20T02:10:36;37.20;;;17.70;;
84025;SDS011;74110;45.660;25.582;2023-12-20T02:13:05;36.10;;;16.80;;
84025;SDS011;74110;45.660;25.582;2023-12-20T02:15:34;33.20;;;13.60;;
84025;SDS011;74110;45.660;25.582;2023-12-20T02:18:06;43.10;;;18.50;;
84025;SDS011;74110;45.660;25.582;2023-12-20T02:20:35;35.50;;;17.00;;
84025;SDS011;74110;45.660;25.582;2023-12-20T02:23:04;47.70;;;20.60;;
84025;SDS011;74110;45.660;25.582;2023-12-20T02:25:33;40.00;;;16.40;;
84025;SDS011;74110;45.660;25.582;2023-12-20T02:28:03;47.20;;;21.70;;
84025;SDS011;74110;45.660;25.582;2023-12-20T02:30:33;47.50;;;21.70;;
84025;SDS011;74110;45.660;25.582;2023-12-20T02:33:03;49.00;;;22.20;;
84025;SDS011;74110;45.660;25.582;2023-12-20T02:35:37;48.20;;;18.30;;
84025;SDS011;74110;45.660;25.582;2023-12-20T02:38:07;28.60;;;12.90;;
84025;SDS011;74110;45.660;25.582;2023-12-20T02:40:35;34.70;;;14.80;;
84025;SDS011;74110;45.660;25.582;2023-12-20T02:43:05;39.80;;;19.20;;
84025;SDS011;74110;45.660;25.582;2023-12-20T02:48:02;39.80;;;15.90;;
84025;SDS011;74110;45.660;25.582;2023-12-20T02:50:32;35.10;;;13.00;;
84025;SDS011;74110;45.660;25.582;2023-12-20T02:53:01;37.50;;;16.90;;
84025;SDS011;74110;45.660;25.582;2023-12-20T02:55:30;52.90;;;24.00;;
84025;SDS011;74110;45.660;25.582;2023-12-20T02:57:59;43.60;;;21.10;;
84025;SDS011;74110;45.660;25.582;2023-12-20T03:00:29;40.40;;;18.10;;
84025;SDS011;74110;45.660;25.582;2023-12-20T03:02:58;42.70;;;18.60;;
84025;SDS011;74110;45.660;25.582;2023-12-20T03:05:28;39.50;;;16.40;;
84025;SDS011;74110;45.660;25.582;2023-12-20T03:07:58;40.10;;;18.20;;
84025;SDS011;74110;45.660;25.582;2023-12-20T03:10:27;34.30;;;14.20;;
84025;SDS011;74110;45.660;25.582;2023-12-20T03:15:25;33.70;;;14.90;;
84025;SDS011;74110;45.660;25.582;2023-12-20T03:17:55;36.90;;;15.10;;
84025;SDS011;74110;45.660;25.582;2023-12-20T03:20:24;41.30;;;18.90;;
84025;SDS011;74110;45.660;25.582;2023-12-20T03:23:02;49.80;;;22.10;;
84025;SDS011;74110;45.660;25.582;2023-12-20T03:25:31;45.10;;;19.50;;
84025;SDS011;74110;45.660;25.582;2023-12-20T03:28:08;45.10;;;19.60;;
84025;SDS011;74110;45.660;25.582;2023-12-20T03:30:37;34.20;;;15.50;;
84025;SDS011;74110;45.660;25.582;2023-12-20T03:33:07;36.10;;;18.70;;
84025;SDS011;74110;45.660;25.582;2023-12-20T03:35:36;42.60;;;19.30;;
84025;SDS011;74110;45.660;25.582;2023-12-20T03:38:05;41.30;;;19.30;;
84025;SDS011;74110;45.660;25.582;2023-12-20T03:40:34;33.10;;;15.30;;
84025;SDS011;74110;45.660;25.582;2023-12-20T03:43:03;29.10;;;10.90;;
84025;SDS011;74110;45.660;25.582;2023-12-20T03:45:33;42.30;;;16.40;;
84025;SDS011;74110;45.660;25.582;2023-12-20T03:48:02;40.50;;;17.20;;
84025;SDS011;74110;45.660;25.582;2023-12-20T03:50:32;46.40;;;18.90;;
84025;SDS011;74110;45.660;25.582;2023-12-20T03:53:01;40.60;;;17.90;;
84025;SDS011;74110;45.660;25.582;2023-12-20T03:55:31;36.40;;;15.50;;
84025;SDS011;74110;45.660;25.582;2023-12-20T03:58:00;27.20;;;13.00;;
84025;SDS011;74110;45.660;25.582;2023-12-20T04:00:29;35.40;;;16.60;;
84025;SDS011;74110;45.660;25.582;2023-12-20T04:02:57;29.00;;;13.70;;
84025;SDS011;74110;45.660;25.582;2023-12-20T04:05:26;31.60;;;14.40;;
84025;SDS011;74110;45.660;25.582;2023-12-20T04:07:55;34.30;;;15.20;;
84025;SDS011;74110;45.660;25.582;2023-12-20T04:10:25;41.40;;;18.20;;
84025;SDS011;74110;45.660;25.582;2023-12-20T04:12:54;46.70;;;19.50;;
84025;SDS011;74110;45.660;25.582;2023-12-20T04:15:23;43.20;;;20.50;;
84025;SDS011;74110;45.660;25.582;2023-12-20T04:17:52;44.30;;;20.20;;
84025;SDS011;74110;45.660;25.582;2023-12-20T04:20:22;45.40;;;20.30;;
84025;SDS011;74110;45.660;25.582;2023-12-20T04:22:50;40.70;;;15.90;;
84025;SDS011;74110;45.660;25.582;2023-12-20T04:25:20;32.00;;;14.80;;
84025;SDS011;74110;45.660;25.582;2023-12-20T04:27:49;35.70;;;17.00;;
84025;SDS011;74110;45.660;25.582;2023-12-20T04:30:19;33.80;;;14.40;;
84025;SDS011;74110;45.660;25.582;2023-12-20T04:32:48;50.10;;;22.30;;
84025;SDS011;74110;45.660;25.582;2023-12-20T04:35:17;47.70;;;19.10;;
84025;SDS011;74110;45.660;25.582;2023-12-20T04:37:47;46.50;;;19.70;;
84025;SDS011;74110;45.660;25.582;2023-12-20T04:40:18;49.60;;;20.60;;
84025;SDS011;74110;45.660;25.582;2023-12-20T04:45:15;57.10;;;23.00;;
84025;SDS011;74110;45.660;25.582;2023-12-20T04:47:45;38.70;;;16.80;;
84025;SDS011;74110;45.660;25.582;2023-12-20T04:50:16;55.00;;;20.30;;
84025;SDS011;74110;45.660;25.582;2023-12-20T04:52:45;44.30;;;18.50;;
84025;SDS011;74110;45.660;25.582;2023-12-20T04:55:14;36.10;;;14.60;;
84025;SDS011;74110;45.660;25.582;2023-12-20T04:57:42;42.40;;;16.90;;
84025;SDS011;74110;45.660;25.582;2023-12-20T05:00:12;61.00;;;21.00;;
84025;SDS011;74110;45.660;25.582;2023-12-20T05:02:44;82.40;;;28.30;;
84025;SDS011;74110;45.660;25.582;2023-12-20T05:05:13;53.00;;;21.10;;
84025;SDS011;74110;45.660;25.582;2023-12-20T05:07:43;70.00;;;23.10;;
84025;SDS011;74110;45.660;25.582;2023-12-20T05:10:13;95.40;;;31.10;;
84025;SDS011;74110;45.660;25.582;2023-12-20T05:12:42;118.00;;;39.20;;
84025;SDS011;74110;45.660;25.582;2023-12-20T05:15:11;90.60;;;33.10;;
84025;SDS011;74110;45.660;25.582;2023-12-20T05:17:40;85.30;;;30.50;;
84025;SDS011;74110;45.660;25.582;2023-12-20T05:20:09;63.40;;;25.50;;
84025;SDS011;74110;45.660;25.582;2023-12-20T05:22:39;60.80;;;25.90;;
84025;SDS011;74110;45.660;25.582;2023-12-20T05:25:09;56.20;;;23.70;;
84025;SDS011;74110;45.660;25.582;2023-12-20T05:27:38;59.90;;;25.20;;
84025;SDS011;74110;45.660;25.582;2023-12-20T05:30:07;59.60;;;24.80;;
84025;SDS011;74110;45.660;25.582;2023-12-20T05:32:36;55.60;;;23.50;;
84025;SDS011;74110;45.660;25.582;2023-12-20T05:35:06;55.30;;;24.30;;
84025;SDS011;74110;45.660;25.582;2023-12-20T05:37:35;55.60;;;25.30;;
84025;SDS011;74110;45.660;25.582;2023-12-20T05:40:06;58.10;;;26.00;;
84025;SDS011;74110;45.660;25.582;2023-12-20T05:42:39;56.50;;;26.20;;
84025;SDS011;74110;45.660;25.582;2023-12-20T05:47:38;63.70;;;27.40;;
84025;SDS011;74110;45.660;25.582;2023-12-20T05:50:07;50.80;;;22.20;;
84025;SDS011;74110;45.660;25.582;2023-12-20T05:52:36;53.30;;;22.60;;
84025;SDS011;74110;45.660;25.582;2023-12-20T05:55:05;53.90;;;23.10;;
84025;SDS011;74110;45.660;25.582;2023-12-20T05:57:35;63.50;;;26.10;;
84025;SDS011;74110;45.660;25.582;2023-12-20T06:00:05;49.60;;;24.20;;
84025;SDS011;74110;45.660;25.582;2023-12-20T06:02:38;45.40;;;22.00;;
84025;SDS011;74110;45.660;25.582;2023-12-20T06:05:09;54.60;;;24.50;;
84025;SDS011;74110;45.660;25.582;2023-12-20T06:07:41;54.90;;;25.00;;
84025;SDS011;74110;45.660;25.582;2023-12-20T06:10:10;67.90;;;30.90;;
84025;SDS011;74110;45.660;25.582;2023-12-20T06:12:40;69.00;;;29.10;;
84025;SDS011;74110;45.660;25.582;2023-12-20T06:15:09;61.40;;;26.70;;
84025;SDS011;74110;45.660;25.582;2023-12-20T06:17:42;63.90;;;26.50;;
84025;SDS011;74110;45.660;25.582;2023-12-20T06:20:21;53.00;;;21.40;;
84025;SDS011;74110;45.660;25.582;2023-12-20T06:22:51;61.10;;;25.10;;
84025;SDS011;74110;45.660;25.582;2023-12-20T06:25:33;62.50;;;27.50;;
84025;SDS011;74110;45.660;25.582;2023-12-20T06:28:02;62.80;;;28.40;;
84025;SDS011;74110;45.660;25.582;2023-12-20T06:30:34;41.70;;;19.30;;
84025;SDS011;74110;45.660;25.582;2023-12-20T06:33:06;64.90;;;27.60;;
84025;SDS011;74110;45.660;25.582;2023-12-20T06:35:36;84.30;;;34.30;;
84025;SDS011;74110;45.660;25.582;2023-12-20T06:38:05;87.00;;;37.40;;
84025;SDS011;74110;45.660;25.582;2023-12-20T06:40:37;87.50;;;39.30;;
84025;SDS011;74110;45.660;25.582;2023-12-20T06:43:06;71.30;;;31.20;;
84025;SDS011;74110;45.660;25.582;2023-12-20T06:45:48;72.40;;;31.00;;
84025;SDS011;74110;45.660;25.582;2023-12-20T06:48:19;81.60;;;34.20;;
84025;SDS011;74110;45.660;25.582;2023-12-20T06:50:50;92.50;;;41.30;;
84025;SDS011;74110;45.660;25.582;2023-12-20T06:53:19;74.20;;;33.50;;
84025;SDS011;74110;45.660;25.582;2023-12-20T06:55:49;103.80;;;45.60;;
84025;SDS011;74110;45.660;25.582;2023-12-20T06:58:19;85.20;;;35.80;;
84025;SDS011;74110;45.660;25.582;2023-12-20T07:00:48;94.70;;;40.80;;
84025;SDS011;74110;45.660;25.582;2023-12-20T07:03:20;85.50;;;33.00;;
84025;SDS011;74110;45.660;25.582;2023-12-20T07:05:49;93.60;;;38.30;;
84025;SDS011;74110;45.660;25.582;2023-12-20T07:08:20;107.50;;;45.10;;
84025;SDS011;74110;45.660;25.582;2023-12-20T07:10:49;104.70;;;44.90;;
84025;SDS011;74110;45.660;25.582;2023-12-20T07:13:19;81.60;;;35.90;;
84025;SDS011;74110;45.660;25.582;2023-12-20T07:15:49;93.90;;;40.80;;
84025;SDS011;74110;45.660;25.582;2023-12-20T07:18:18;83.80;;;35.70;;
84025;SDS011;74110;45.660;25.582;2023-12-20T07:20:48;89.00;;;41.40;;
84025;SDS011;74110;45.660;25.582;2023-12-20T07:23:29;73.70;;;33.60;;
84025;SDS011;74110;45.660;25.582;2023-12-20T07:26:01;55.80;;;24.70;;
84025;SDS011;74110;45.660;25.582;2023-12-20T07:28:31;84.90;;;38.50;;
84025;SDS011;74110;45.660;25.582;2023-12-20T07:31:01;73.00;;;31.50;;
84025;SDS011;74110;45.660;25.582;2023-12-20T07:33:30;69.90;;;31.20;;
84025;SDS011;74110;45.660;25.582;2023-12-20T07:36:09;74.00;;;34.70;;
84025;SDS011;74110;45.660;25.582;2023-12-20T07:38:38;78.10;;;36.40;;
84025;SDS011;74110;45.660;25.582;2023-12-20T07:41:09;70.60;;;35.00;;
84025;SDS011;74110;45.660;25.582;2023-12-20T07:43:43;79.90;;;33.40;;
84025;SDS011;74110;45.660;25.582;2023-12-20T07:46:21;81.90;;;38.60;;
84025;SDS011;74110;45.660;25.582;2023-12-20T07:48:59;75.10;;;34.30;;
84025;SDS011;74110;45.660;25.582;2023-12-20T07:51:29;62.10;;;29.00;;
84025;SDS011;74110;45.660;25.582;2023-12-20T07:53:59;62.70;;;29.00;;
84025;SDS011;74110;45.660;25.582;2023-12-20T07:56:30;69.30;;;33.00;;
84025;SDS011;74110;45.660;25.582;2023-12-20T07:58:59;70.50;;;34.60;;
84025;SDS011;74110;45.660;25.582;2023-12-20T08:01:28;72.40;;;35.50;;
84025;SDS011;74110;45.660;25.582;2023-12-20T08:03:58;53.90;;;25.60;;
84025;SDS011;74110;45.660;25.582;2023-12-20T08:06:27;64.50;;;30.60;;
84025;SDS011;74110;45.660;25.582;2023-12-20T08:08:57;50.00;;;23.80;;
84025;SDS011;74110;45.660;25.582;2023-12-20T08:11:37;69.10;;;30.60;;
84025;SDS011;74110;45.660;25.582;2023-12-20T08:14:07;60.30;;;30.20;;
84025;SDS011;74110;45.660;25.582;2023-12-20T08:16:38;59.90;;;28.80;;
84025;SDS011;74110;45.660;25.582;2023-12-20T08:19:08;56.20;;;29.30;;
84025;SDS011;74110;45.660;25.582;2023-12-20T08:21:39;61.20;;;30.80;;
84025;SDS011;74110;45.660;25.582;2023-12-20T08:24:08;62.60;;;30.60;;
84025;SDS011;74110;45.660;25.582;2023-12-20T08:26:39;66.60;;;32.40;;
84025;SDS011;74110;45.660;25.582;2023-12-20T08:29:08;54.40;;;29.20;;
84025;SDS011;74110;45.660;25.582;2023-12-20T08:31:40;58.70;;;29.80;;
84025;SDS011;74110;45.660;25.582;2023-12-20T08:34:09;61.90;;;29.10;;
84025;SDS011;74110;45.660;25.582;2023-12-20T08:36:40;55.90;;;28.00;;
84025;SDS011;74110;45.660;25.582;2023-12-20T08:39:09;52.60;;;24.90;;
84025;SDS011;74110;45.660;25.582;2023-12-20T08:41:40;50.10;;;24.90;;
84025;SDS011;74110;45.660;25.582;2023-12-20T08:44:09;58.30;;;27.10;;
84025;SDS011;74110;45.660;25.582;2023-12-20T08:46:38;58.30;;;27.40;;
84025;SDS011;74110;45.660;25.582;2023-12-20T08:49:07;50.40;;;26.00;;
84025;SDS011;74110;45.660;25.582;2023-12-20T08:51:42;49.90;;;25.00;;
84025;SDS011;74110;45.660;25.582;2023-12-20T08:54:12;46.60;;;23.60;;
84025;SDS011;74110;45.660;25.582;2023-12-20T08:56:42;49.50;;;26.30;;
84025;SDS011;74110;45.660;25.582;2023-12-20T08:59:13;45.40;;;22.70;;
84025;SDS011;74110;45.660;25.582;2023-12-20T09:01:44;45.00;;;21.80;;
84025;SDS011;74110;45.660;25.582;2023-12-20T09:04:23;47.50;;;24.00;;
84025;SDS011;74110;45.660;25.582;2023-12-20T09:06:54;58.90;;;27.40;;
84025;SDS011;74110;45.660;25.582;2023-12-20T09:09:23;51.40;;;23.30;;
84025;SDS011;74110;45.660;25.582;2023-12-20T09:11:53;53.30;;;24.90;;
84025;SDS011;74110;45.660;25.582;2023-12-20T09:14:22;45.20;;;21.70;;
84025;SDS011;74110;45.660;25.582;2023-12-20T09:16:52;45.70;;;23.70;;
84025;SDS011;74110;45.660;25.582;2023-12-20T09:19:28;46.30;;;24.40;;
84025;SDS011;74110;45.660;25.582;2023-12-20T09:21:58;52.50;;;25.40;;
84025;SDS011;74110;45.660;25.582;2023-12-20T09:24:27;62.40;;;31.30;;
84025;SDS011;74110;45.660;25.582;2023-12-20T09:26:56;81.00;;;37.20;;
84025;SDS011;74110;45.660;25.582;2023-12-20T09:29:26;68.90;;;32.90;;
84025;SDS011;74110;45.660;25.582;2023-12-20T09:31:55;62.20;;;34.80;;
84025;SDS011;74110;45.660;25.582;2023-12-20T09:34:26;66.30;;;33.00;;
84025;SDS011;74110;45.660;25.582;2023-12-20T09:36:56;64.20;;;32.40;;
84025;SDS011;74110;45.660;25.582;2023-12-20T09:39:34;54.30;;;27.50;;
84025;SDS011;74110;45.660;25.582;2023-12-20T09:42:08;53.80;;;29.30;;
84025;SDS011;74110;45.660;25.582;2023-12-20T09:44:44;50.10;;;27.50;;
84025;SDS011;74110;45.660;25.582;2023-12-20T09:47:14;56.90;;;29.10;;
84025;SDS011;74110;45.660;25.582;2023-12-20T09:52:23;51.30;;;26.80;;
84025;SDS011;74110;45.660;25.582;2023-12-20T09:54:58;60.40;;;27.60;;
84025;SDS011;74110;45.660;25.582;2023-12-20T09:57:31;35.80;;;16.50;;
84025;SDS011;74110;45.660;25.582;2023-12-20T10:00:01;39.50;;;19.90;;
84025;SDS011;74110;45.660;25.582;2023-12-20T10:02:59;62.20;;;31.00;;
84025;SDS011;74110;45.660;25.582;2023-12-20T10:05:31;64.80;;;32.50;;
84025;SDS011;74110;45.660;25.582;2023-12-20T10:08:47;61.60;;;27.90;;
84025;SDS011;74110;45.660;25.582;2023-12-20T10:11:20;55.90;;;29.70;;
84025;SDS011;74110;45.660;25.582;2023-12-20T10:13:50;58.40;;;26.50;;
84025;SDS011;74110;45.660;25.582;2023-12-20T10:16:25;56.40;;;28.10;;
84025;SDS011;74110;45.660;25.582;2023-12-20T10:18:57;71.40;;;35.40;;
84025;SDS011;74110;45.660;25.582;2023-12-20T10:21:26;57.00;;;26.10;;
84025;SDS011;74110;45.660;25.582;2023-12-20T10:23:57;60.70;;;27.80;;
84025;SDS011;74110;45.660;25.582;2023-12-20T10:26:28;58.40;;;28.80;;
84025;SDS011;74110;45.660;25.582;2023-12-20T10:29:01;92.60;;;41.40;;
84025;SDS011;74110;45.660;25.582;2023-12-20T10:31:41;94.50;;;45.80;;
84025;SDS011;74110;45.660;25.582;2023-12-20T10:34:16;60.70;;;28.80;;
84025;SDS011;74110;45.660;25.582;2023-12-20T10:36:47;44.80;;;21.00;;
84025;SDS011;74110;45.660;25.582;2023-12-20T10:39:17;51.20;;;25.80;;
84025;SDS011;74110;45.660;25.582;2023-12-20T10:41:49;40.60;;;23.30;;
84025;SDS011;74110;45.660;25.582;2023-12-20T10:44:20;87.70;;;33.90;;
84025;SDS011;74110;45.660;25.582;2023-12-20T10:46:50;62.50;;;28.60;;
84025;SDS011;74110;45.660;25.582;2023-12-20T10:49:26;56.30;;;27.10;;
84025;SDS011;74110;45.660;25.582;2023-12-20T10:51:57;50.00;;;23.80;;
84025;SDS011;74110;45.660;25.582;2023-12-20T10:54:30;68.90;;;30.90;;
84025;SDS011;74110;45.660;25.582;2023-12-20T10:56:59;66.70;;;29.30;;
84025;SDS011;74110;45.660;25.582;2023-12-20T10:59:38;59.80;;;30.60;;
84025;SDS011;74110;45.660;25.582;2023-12-20T11:02:19;64.60;;;29.80;;
84025;SDS011;74110;45.660;25.582;2023-12-20T11:04:55;75.70;;;30.60;;
84025;SDS011;74110;45.660;25.582;2023-12-20T11:07:36;56.20;;;24.60;;
84025;SDS011;74110;45.660;25.582;2023-12-20T11:10:36;66.30;;;29.80;;
84025;SDS011;74110;45.660;25.582;2023-12-20T11:14:07;56.30;;;28.20;;
84025;SDS011;74110;45.660;25.582;2023-12-20T11:16:33;52.90;;;27.10;;
84025;SDS011;74110;45.660;25.582;2023-12-20T11:19:19;56.90;;;28.50;;
84025;SDS011;74110;45.660;25.582;2023-12-20T11:21:51;61.70;;;31.30;;
84025;SDS011;74110;45.660;25.582;2023-12-20T11:24:22;53.40;;;27.10;;
84025;SDS011;74110;45.660;25.582;2023-12-20T11:26:55;42.00;;;21.00;;
84025;SDS011;74110;45.660;25.582;2023-12-20T11:29:34;65.60;;;33.10;;
84025;SDS011;74110;45.660;25.582;2023-12-20T11:33:40;53.60;;;28.00;;
84025;SDS011;74110;45.660;25.582;2023-12-20T11:35:17;49.00;;;27.40;;
84025;SDS011;74110;45.660;25.582;2023-12-20T11:37:50;55.00;;;27.70;;
84025;SDS011;74110;45.660;25.582;2023-12-20T11:40:19;53.60;;;26.80;;
84025;SDS011;74110;45.660;25.582;2023-12-20T11:42:51;51.60;;;27.30;;
84025;SDS011;74110;45.660;25.582;2023-12-20T11:45:24;58.30;;;28.70;;
84025;SDS011;74110;45.660;25.582;2023-12-20T11:47:59;60.50;;;29.60;;
84025;SDS011;74110;45.660;25.582;2023-12-20T11:50:30;59.10;;;30.30;;
84025;SDS011;74110;45.660;25.582;2023-12-20T11:52:59;53.60;;;30.00;;
84025;SDS011;74110;45.660;25.582;2023-12-20T11:55:33;48.60;;;25.20;;
84025;SDS011;74110;45.660;25.582;2023-12-20T11:58:03;59.00;;;30.50;;
84025;SDS011;74110;45.660;25.582;2023-12-20T12:00:32;66.70;;;32.20;;
84025;SDS011;74110;45.660;25.582;2023-12-20T12:03:02;62.50;;;30.80;;
84025;SDS011;74110;45.660;25.582;2023-12-20T12:05:32;69.50;;;33.30;;
84025;SDS011;74110;45.660;25.582;2023-12-20T12:08:03;60.20;;;28.70;;
84025;SDS011;74110;45.660;25.582;2023-12-20T12:10:34;62.70;;;29.10;;
84025;SDS011;74110;45.660;25.582;2023-12-20T12:13:04;69.30;;;31.60;;
84025;SDS011;74110;45.660;25.582;2023-12-20T12:15:34;71.20;;;28.20;;
84025;SDS011;74110;45.660;25.582;2023-12-20T12:18:02;52.10;;;26.40;;
84025;SDS011;74110;45.660;25.582;2023-12-20T12:20:35;62.90;;;31.60;;
84025;SDS011;74110;45.660;25.582;2023-12-20T12:23:05;54.10;;;26.60;;
84025;SDS011;74110;45.660;25.582;2023-12-20T12:25:36;62.10;;;29.80;;
84025;SDS011;74110;45.660;25.582;2023-12-20T12:28:11;61.60;;;34.10;;
84025;SDS011;74110;45.660;25.582;2023-12-20T12:30:42;60.90;;;31.10;;
84025;SDS011;74110;45.660;25.582;2023-12-20T12:33:22;63.70;;;33.00;;
84025;SDS011;74110;45.660;25.582;2023-12-20T12:35:52;67.80;;;34.30;;
84025;SDS011;74110;45.660;25.582;2023-12-20T12:38:22;59.00;;;31.80;;
84025;SDS011;74110;45.660;25.582;2023-12-20T12:40:54;72.00;;;32.30;;
84025;SDS011;74110;45.660;25.582;2023-12-20T12:43:23;68.10;;;32.50;;
84025;SDS011;74110;45.660;25.582;2023-12-20T12:45:53;75.80;;;31.90;;
84025;SDS011;74110;45.660;25.582;2023-12-20T12:48:22;63.00;;;32.50;;
84025;SDS011;74110;45.660;25.582;2023-12-20T12:50:51;61.80;;;31.60;;
84025;SDS011;74110;45.660;25.582;2023-12-20T12:53:21;60.60;;;28.50;;
84025;SDS011;74110;45.660;25.582;2023-12-20T12:55:50;60.30;;;30.30;;
84025;SDS011;74110;45.660;25.582;2023-12-20T12:58:20;56.10;;;29.00;;
84025;SDS011;74110;45.660;25.582;2023-12-20T13:00:51;56.00;;;25.40;;
84025;SDS011;74110;45.660;25.582;2023-12-20T13:03:21;62.30;;;29.20;;
84025;SDS011;74110;45.660;25.582;2023-12-20T13:05:50;55.20;;;26.30;;
84025;SDS011;74110;45.660;25.582;2023-12-20T13:08:19;62.90;;;31.40;;
84025;SDS011;74110;45.660;25.582;2023-12-20T13:10:48;59.50;;;31.80;;
84025;SDS011;74110;45.660;25.582;2023-12-20T13:13:17;62.20;;;32.30;;
84025;SDS011;74110;45.660;25.582;2023-12-20T13:15:47;58.70;;;29.70;;
84025;SDS011;74110;45.660;25.582;2023-12-20T13:18:22;53.90;;;28.10;;
84025;SDS011;74110;45.660;25.582;2023-12-20T13:20:51;62.10;;;30.50;;
84025;SDS011;74110;45.660;25.582;2023-12-20T13:23:21;60.30;;;28.10;;
84025;SDS011;74110;45.660;25.582;2023-12-20T13:25:50;60.00;;;29.30;;
84025;SDS011;74110;45.660;25.582;2023-12-20T13:28:20;56.90;;;29.00;;
84025;SDS011;74110;45.660;25.582;2023-12-20T13:30:49;59.90;;;29.60;;
84025;SDS011;74110;45.660;25.582;2023-12-20T13:33:18;57.00;;;28.80;;
84025;SDS011;74110;45.660;25.582;2023-12-20T13:35:48;59.60;;;28.70;;
84025;SDS011;74110;45.660;25.582;2023-12-20T13:38:16;64.80;;;28.80;;
84025;SDS011;74110;45.660;25.582;2023-12-20T13:40:45;79.30;;;29.00;;
84025;SDS011;74110;45.660;25.582;2023-12-20T13:43:15;70.90;;;31.10;;
84025;SDS011;74110;45.660;25.582;2023-12-20T13:45:49;54.40;;;26.00;;
84025;SDS011;74110;45.660;25.582;2023-12-20T13:48:19;52.50;;;26.60;;
84025;SDS011;74110;45.660;25.582;2023-12-20T13:50:48;65.80;;;30.40;;
84025;SDS011;74110;45.660;25.582;2023-12-20T13:53:17;51.50;;;24.60;;
84025;SDS011;74110;45.660;25.582;2023-12-20T13:55:50;64.70;;;31.50;;
84025;SDS011;74110;45.660;25.582;2023-12-20T13:58:20;71.50;;;33.60;;
84025;SDS011;74110;45.660;25.582;2023-12-20T14:00:49;69.50;;;31.40;;
84025;SDS011;74110;45.660;25.582;2023-12-20T14:03:18;64.40;;;30.70;;
84025;SDS011;74110;45.660;25.582;2023-12-20T14:05:51;83.70;;;33.90;;
84025;SDS011;74110;45.660;25.582;2023-12-20T14:08:20;68.80;;;32.40;;
84025;SDS011;74110;45.660;25.582;2023-12-20T14:10:51;63.40;;;30.90;;
84025;SDS011;74110;45.660;25.582;2023-12-20T14:13:21;63.40;;;32.20;;
84025;SDS011;74110;45.660;25.582;2023-12-20T14:15:50;64.00;;;32.60;;
84025;SDS011;74110;45.660;25.582;2023-12-20T14:18:20;67.40;;;30.20;;
84025;SDS011;74110;45.660;25.582;2023-12-20T14:20:50;81.70;;;35.80;;
84025;SDS011;74110;45.660;25.582;2023-12-20T14:23:22;79.20;;;31.80;;
84025;SDS011;74110;45.660;25.582;2023-12-20T14:25:52;58.80;;;28.10;;
84025;SDS011;74110;45.660;25.582;2023-12-20T14:28:21;70.80;;;31.00;;
84025;SDS011;74110;45.660;25.582;2023-12-20T14:30:51;76.30;;;34.10;;
84025;SDS011;74110;45.660;25.582;2023-12-20T14:33:21;107.60;;;38.90;;
84025;SDS011;74110;45.660;25.582;2023-12-20T14:35:50;78.50;;;36.40;;
84025;SDS011;74110;45.660;25.582;2023-12-20T14:38:21;64.40;;;30.60;;
84025;SDS011;74110;45.660;25.582;2023-12-20T14:40:51;72.10;;;36.10;;
84025;SDS011;74110;45.660;25.582;2023-12-20T14:43:20;65.80;;;32.30;;